sensor_id;sensor_type;location;lat;lon;timestamp;P1;durP1;ratioP1;P2;durP2;ratioP2
2386;SDS011;49473;50.772;8.768;2023-07-13T00:00:07;4.83;;;2.20;;
2386;SDS011;49473;50.772;8.768;2023-07-13T00:02:35;2.80;;;1.97;;
2386;SDS011;49473;50.772;8.768;2023-07-13T00:05:02;2.80;;;2.00;;
2386;SDS011;49473;50.772;8.768;2023-07-13T00:07:30;2.90;;;1.80;;
2386;SDS011;49473;50.772;8.768;2023-07-13T00:09:57;2.07;;;1.87;;
2386;SDS011;49473;50.772;8.768;2023-07-13T00:12:25;4.27;;;2.17;;
2386;SDS011;49473;50.772;8.768;2023-07-13T00:14:56;3.07;;;1.67;;
2386;SDS011;49473;50.772;8.768;2023-07-13T00:17:24;1.80;;;1.70;;
2386;SDS011;49473;50.772;8.768;2023-07-13T00:19:51;3.77;;;1.70;;
2386;SDS011;49473;50.772;8.768;2023-07-13T00:22:18;1.83;;;1.73;;
2386;SDS011;49473;50.772;8.768;2023-07-13T00:24:45;4.83;;;2.17;;
2386;SDS011;49473;50.772;8.768;2023-07-13T00:27:11;2.23;;;2.10;;
2386;SDS011;49473;50.772;8.768;2023-07-13T00:29:38;2.67;;;1.93;;
2386;SDS011;49473;50.772;8.768;2023-07-13T00:32:07;3.00;;;1.90;;
2386;SDS011;49473;50.772;8.768;2023-07-13T00:34:36;3.53;;;2.33;;
2386;SDS011;49473;50.772;8.768;2023-07-13T00:37:04;2.37;;;1.90;;
2386;SDS011;49473;50.772;8.768;2023-07-13T00:39:32;1.80;;;1.70;;
2386;SDS011;49473;50.772;8.768;2023-07-13T00:41:59;3.90;;;2.10;;
2386;SDS011;49473;50.772;8.768;2023-07-13T00:44:26;2.10;;;1.87;;
2386;SDS011;49473;50.772;8.768;2023-07-13T00:46:54;1.80;;;1.70;;
2386;SDS011;49473;50.772;8.768;2023-07-13T00:49:25;3.13;;;2.10;;
2386;SDS011;49473;50.772;8.768;2023-07-13T00:51:56;2.33;;;2.13;;
2386;SDS011;49473;50.772;8.768;2023-07-13T00:54:27;2.03;;;1.83;;
2386;SDS011;49473;50.772;8.768;2023-07-13T00:56:57;2.53;;;2.20;;
2386;SDS011;49473;50.772;8.768;2023-07-13T00:59:27;2.13;;;2.03;;
2386;SDS011;49473;50.772;8.768;2023-07-13T01:01:54;1.87;;;1.77;;
2386;SDS011;49473;50.772;8.768;2023-07-13T01:04:23;5.17;;;2.63;;
2386;SDS011;49473;50.772;8.768;2023-07-13T01:06:51;2.37;;;2.23;;
2386;SDS011;49473;50.772;8.768;2023-07-13T01:09:19;2.60;;;2.10;;
2386;SDS011;49473;50.772;8.768;2023-07-13T01:11:46;3.10;;;2.60;;
2386;SDS011;49473;50.772;8.768;2023-07-13T01:14:14;2.70;;;2.20;;
2386;SDS011;49473;50.772;8.768;2023-07-13T01:16:42;3.17;;;2.40;;
2386;SDS011;49473;50.772;8.768;2023-07-13T01:19:13;2.03;;;1.93;;
2386;SDS011;49473;50.772;8.768;2023-07-13T01:21:52;2.37;;;1.90;;
2386;SDS011;49473;50.772;8.768;2023-07-13T01:24:19;1.90;;;1.80;;
2386;SDS011;49473;50.772;8.768;2023-07-13T01:26:45;2.73;;;1.90;;
2386;SDS011;49473;50.772;8.768;2023-07-13T01:29:12;2.43;;;2.00;;
2386;SDS011;49473;50.772;8.768;2023-07-13T01:31:39;2.50;;;1.97;;
2386;SDS011;49473;50.772;8.768;2023-07-13T01:34:06;2.60;;;1.80;;
2386;SDS011;49473;50.772;8.768;2023-07-13T01:36:33;2.30;;;2.10;;
2386;SDS011;49473;50.772;8.768;2023-07-13T01:39:01;3.10;;;1.80;;
2386;SDS011;49473;50.772;8.768;2023-07-13T01:41:28;2.10;;;1.90;;
2386;SDS011;49473;50.772;8.768;2023-07-13T01:43:55;2.50;;;2.00;;
2386;SDS011;49473;50.772;8.768;2023-07-13T01:46:22;2.50;;;1.80;;
2386;SDS011;49473;50.772;8.768;2023-07-13T01:48:48;2.03;;;1.83;;
2386;SDS011;49473;50.772;8.768;2023-07-13T01:51:15;2.60;;;1.70;;
2386;SDS011;49473;50.772;8.768;2023-07-13T01:53:42;2.30;;;1.90;;
2386;SDS011;49473;50.772;8.768;2023-07-13T01:56:11;1.87;;;1.77;;
2386;SDS011;49473;50.772;8.768;2023-07-13T01:58:37;2.40;;;1.80;;
2386;SDS011;49473;50.772;8.768;2023-07-13T02:01:04;1.67;;;1.57;;
2386;SDS011;49473;50.772;8.768;2023-07-13T02:03:31;2.10;;;1.93;;
2386;SDS011;49473;50.772;8.768;2023-07-13T02:05:57;2.00;;;1.90;;
2386;SDS011;49473;50.772;8.768;2023-07-13T02:08:24;2.70;;;2.00;;
2386;SDS011;49473;50.772;8.768;2023-07-13T02:10:51;2.73;;;2.10;;
2386;SDS011;49473;50.772;8.768;2023-07-13T02:13:19;3.23;;;2.20;;
2386;SDS011;49473;50.772;8.768;2023-07-13T02:15:46;2.20;;;2.00;;
2386;SDS011;49473;50.772;8.768;2023-07-13T02:18:15;2.87;;;1.80;;
2386;SDS011;49473;50.772;8.768;2023-07-13T02:20:42;2.10;;;2.00;;
2386;SDS011;49473;50.772;8.768;2023-07-13T02:23:09;4.93;;;2.03;;
2386;SDS011;49473;50.772;8.768;2023-07-13T02:25:37;3.93;;;2.07;;
2386;SDS011;49473;50.772;8.768;2023-07-13T02:28:03;1.90;;;1.73;;
2386;SDS011;49473;50.772;8.768;2023-07-13T02:30:31;2.17;;;1.97;;
2386;SDS011;49473;50.772;8.768;2023-07-13T02:32:58;2.30;;;2.10;;
2386;SDS011;49473;50.772;8.768;2023-07-13T02:35:25;2.10;;;1.90;;
2386;SDS011;49473;50.772;8.768;2023-07-13T02:37:52;3.97;;;2.37;;
2386;SDS011;49473;50.772;8.768;2023-07-13T02:40:19;2.00;;;1.80;;
2386;SDS011;49473;50.772;8.768;2023-07-13T02:42:45;2.63;;;2.33;;
2386;SDS011;49473;50.772;8.768;2023-07-13T02:45:12;4.13;;;2.20;;
2386;SDS011;49473;50.772;8.768;2023-07-13T02:47:41;2.97;;;2.20;;
2386;SDS011;49473;50.772;8.768;2023-07-13T02:50:08;3.07;;;2.77;;
2386;SDS011;49473;50.772;8.768;2023-07-13T02:52:35;4.53;;;2.23;;
2386;SDS011;49473;50.772;8.768;2023-07-13T02:55:02;2.80;;;2.20;;
2386;SDS011;49473;50.772;8.768;2023-07-13T02:57:29;4.20;;;2.37;;
2386;SDS011;49473;50.772;8.768;2023-07-13T02:59:58;3.23;;;2.10;;
2386;SDS011;49473;50.772;8.768;2023-07-13T03:02:24;2.53;;;2.33;;
2386;SDS011;49473;50.772;8.768;2023-07-13T03:04:54;3.60;;;2.33;;
2386;SDS011;49473;50.772;8.768;2023-07-13T03:07:21;2.50;;;1.97;;
2386;SDS011;49473;50.772;8.768;2023-07-13T03:09:47;2.13;;;1.90;;
2386;SDS011;49473;50.772;8.768;2023-07-13T03:12:14;2.50;;;1.80;;
2386;SDS011;49473;50.772;8.768;2023-07-13T03:14:41;2.40;;;2.13;;
2386;SDS011;49473;50.772;8.768;2023-07-13T03:17:07;2.70;;;2.17;;
2386;SDS011;49473;50.772;8.768;2023-07-13T03:19:34;2.60;;;1.83;;
2386;SDS011;49473;50.772;8.768;2023-07-13T03:22:02;3.10;;;2.13;;
2386;SDS011;49473;50.772;8.768;2023-07-13T03:24:29;3.13;;;2.37;;
2386;SDS011;49473;50.772;8.768;2023-07-13T03:26:58;4.67;;;2.13;;
2386;SDS011;49473;50.772;8.768;2023-07-13T03:29:24;2.77;;;2.10;;
2386;SDS011;49473;50.772;8.768;2023-07-13T03:31:51;2.77;;;2.03;;
2386;SDS011;49473;50.772;8.768;2023-07-13T03:34:18;2.33;;;1.90;;
2386;SDS011;49473;50.772;8.768;2023-07-13T03:36:44;2.73;;;2.43;;
2386;SDS011;49473;50.772;8.768;2023-07-13T03:39:12;6.43;;;2.33;;
2386;SDS011;49473;50.772;8.768;2023-07-13T03:41:39;2.93;;;1.93;;
2386;SDS011;49473;50.772;8.768;2023-07-13T03:44:06;2.80;;;1.90;;
2386;SDS011;49473;50.772;8.768;2023-07-13T03:46:33;2.50;;;2.30;;
2386;SDS011;49473;50.772;8.768;2023-07-13T03:49:00;4.63;;;2.20;;
2386;SDS011;49473;50.772;8.768;2023-07-13T03:51:28;2.50;;;2.27;;
2386;SDS011;49473;50.772;8.768;2023-07-13T03:53:54;3.30;;;2.33;;
2386;SDS011;49473;50.772;8.768;2023-07-13T03:56:23;2.10;;;2.00;;
2386;SDS011;49473;50.772;8.768;2023-07-13T03:58:50;4.03;;;1.90;;
2386;SDS011;49473;50.772;8.768;2023-07-13T04:01:17;2.00;;;1.80;;
2386;SDS011;49473;50.772;8.768;2023-07-13T04:03:45;1.80;;;1.70;;
2386;SDS011;49473;50.772;8.768;2023-07-13T04:06:14;3.60;;;2.13;;
2386;SDS011;49473;50.772;8.768;2023-07-13T04:08:46;3.00;;;2.47;;
2386;SDS011;49473;50.772;8.768;2023-07-13T04:11:14;2.17;;;2.00;;
2386;SDS011;49473;50.772;8.768;2023-07-13T04:13:42;1.80;;;1.70;;
2386;SDS011;49473;50.772;8.768;2023-07-13T04:16:08;2.93;;;1.90;;
2386;SDS011;49473;50.772;8.768;2023-07-13T04:18:35;3.60;;;2.03;;
2386;SDS011;49473;50.772;8.768;2023-07-13T04:21:02;2.80;;;2.30;;
2386;SDS011;49473;50.772;8.768;2023-07-13T04:23:29;2.53;;;2.33;;
2386;SDS011;49473;50.772;8.768;2023-07-13T04:25:56;7.63;;;2.40;;
2386;SDS011;49473;50.772;8.768;2023-07-13T04:28:23;2.70;;;1.93;;
2386;SDS011;49473;50.772;8.768;2023-07-13T04:30:52;2.77;;;2.33;;
2386;SDS011;49473;50.772;8.768;2023-07-13T04:33:19;1.80;;;1.37;;
2386;SDS011;49473;50.772;8.768;2023-07-13T04:35:47;3.37;;;2.13;;
2386;SDS011;49473;50.772;8.768;2023-07-13T04:38:14;2.67;;;2.00;;
2386;SDS011;49473;50.772;8.768;2023-07-13T04:40:42;3.50;;;2.17;;
2386;SDS011;49473;50.772;8.768;2023-07-13T04:43:08;2.87;;;2.63;;
2386;SDS011;49473;50.772;8.768;2023-07-13T04:45:36;2.67;;;2.33;;
2386;SDS011;49473;50.772;8.768;2023-07-13T04:48:04;2.03;;;1.60;;
2386;SDS011;49473;50.772;8.768;2023-07-13T04:50:31;2.07;;;1.87;;
2386;SDS011;49473;50.772;8.768;2023-07-13T04:52:58;5.20;;;1.93;;
2386;SDS011;49473;50.772;8.768;2023-07-13T04:55:25;3.47;;;1.77;;
2386;SDS011;49473;50.772;8.768;2023-07-13T04:57:55;2.13;;;1.90;;
2386;SDS011;49473;50.772;8.768;2023-07-13T05:00:24;3.00;;;1.60;;
2386;SDS011;49473;50.772;8.768;2023-07-13T05:02:51;3.80;;;2.10;;
2386;SDS011;49473;50.772;8.768;2023-07-13T05:05:19;3.53;;;2.40;;
2386;SDS011;49473;50.772;8.768;2023-07-13T05:07:46;2.73;;;2.00;;
2386;SDS011;49473;50.772;8.768;2023-07-13T05:10:12;3.10;;;1.93;;
2386;SDS011;49473;50.772;8.768;2023-07-13T05:12:39;1.53;;;1.37;;
2386;SDS011;49473;50.772;8.768;2023-07-13T05:15:06;1.70;;;1.60;;
2386;SDS011;49473;50.772;8.768;2023-07-13T05:17:33;2.67;;;2.00;;
2386;SDS011;49473;50.772;8.768;2023-07-13T05:20:00;2.83;;;1.50;;
2386;SDS011;49473;50.772;8.768;2023-07-13T05:22:29;3.13;;;1.57;;
2386;SDS011;49473;50.772;8.768;2023-07-13T05:24:56;2.90;;;1.60;;
2386;SDS011;49473;50.772;8.768;2023-07-13T05:27:23;3.83;;;1.80;;
2386;SDS011;49473;50.772;8.768;2023-07-13T05:29:50;3.13;;;1.70;;
2386;SDS011;49473;50.772;8.768;2023-07-13T05:32:17;3.20;;;1.70;;
2386;SDS011;49473;50.772;8.768;2023-07-13T05:34:44;3.03;;;1.70;;
2386;SDS011;49473;50.772;8.768;2023-07-13T05:37:10;4.50;;;1.90;;
2386;SDS011;49473;50.772;8.768;2023-07-13T05:39:39;1.93;;;1.83;;
2386;SDS011;49473;50.772;8.768;2023-07-13T05:42:06;2.80;;;1.60;;
2386;SDS011;49473;50.772;8.768;2023-07-13T05:44:33;3.10;;;1.60;;
2386;SDS011;49473;50.772;8.768;2023-07-13T05:46:59;4.30;;;1.70;;
2386;SDS011;49473;50.772;8.768;2023-07-13T05:49:26;2.90;;;1.17;;
2386;SDS011;49473;50.772;8.768;2023-07-13T05:51:53;2.73;;;1.37;;
2386;SDS011;49473;50.772;8.768;2023-07-13T05:54:20;2.87;;;1.20;;
2386;SDS011;49473;50.772;8.768;2023-07-13T05:56:48;2.33;;;1.30;;
2386;SDS011;49473;50.772;8.768;2023-07-13T05:59:14;4.83;;;1.60;;
2386;SDS011;49473;50.772;8.768;2023-07-13T06:01:41;4.03;;;1.60;;
2386;SDS011;49473;50.772;8.768;2023-07-13T06:04:08;2.23;;;1.40;;
2386;SDS011;49473;50.772;8.768;2023-07-13T06:06:35;2.33;;;1.20;;
2386;SDS011;49473;50.772;8.768;2023-07-13T06:09:01;3.07;;;1.30;;
2386;SDS011;49473;50.772;8.768;2023-07-13T06:11:28;1.47;;;1.10;;
2386;SDS011;49473;50.772;8.768;2023-07-13T06:13:57;2.30;;;1.20;;
2386;SDS011;49473;50.772;8.768;2023-07-13T06:16:24;2.37;;;1.20;;
2386;SDS011;49473;50.772;8.768;2023-07-13T06:18:50;3.53;;;1.10;;
2386;SDS011;49473;50.772;8.768;2023-07-13T06:21:18;3.10;;;1.07;;
2386;SDS011;49473;50.772;8.768;2023-07-13T06:23:46;2.40;;;1.37;;
2386;SDS011;49473;50.772;8.768;2023-07-13T06:26:14;1.43;;;1.00;;
2386;SDS011;49473;50.772;8.768;2023-07-13T06:28:41;1.83;;;1.00;;
2386;SDS011;49473;50.772;8.768;2023-07-13T06:31:10;3.27;;;1.17;;
2386;SDS011;49473;50.772;8.768;2023-07-13T06:33:38;4.23;;;1.37;;
2386;SDS011;49473;50.772;8.768;2023-07-13T06:36:05;2.23;;;1.00;;
2386;SDS011;49473;50.772;8.768;2023-07-13T06:38:32;1.90;;;1.13;;
2386;SDS011;49473;50.772;8.768;2023-07-13T06:41:00;1.50;;;1.10;;
2386;SDS011;49473;50.772;8.768;2023-07-13T06:43:27;1.40;;;1.10;;
2386;SDS011;49473;50.772;8.768;2023-07-13T06:45:54;4.90;;;1.60;;
2386;SDS011;49473;50.772;8.768;2023-07-13T06:48:23;1.50;;;0.90;;
2386;SDS011;49473;50.772;8.768;2023-07-13T06:50:50;2.83;;;1.00;;
2386;SDS011;49473;50.772;8.768;2023-07-13T06:53:18;1.50;;;0.90;;
2386;SDS011;49473;50.772;8.768;2023-07-13T06:55:46;2.83;;;1.10;;
2386;SDS011;49473;50.772;8.768;2023-07-13T06:58:16;4.63;;;1.37;;
2386;SDS011;49473;50.772;8.768;2023-07-13T07:00:44;1.30;;;1.00;;
2386;SDS011;49473;50.772;8.768;2023-07-13T07:03:10;2.60;;;1.00;;
2386;SDS011;49473;50.772;8.768;2023-07-13T07:05:39;2.83;;;1.07;;
2386;SDS011;49473;50.772;8.768;2023-07-13T07:08:05;1.83;;;0.90;;
2386;SDS011;49473;50.772;8.768;2023-07-13T07:10:33;3.03;;;1.10;;
2386;SDS011;49473;50.772;8.768;2023-07-13T07:13:00;2.67;;;0.80;;
2386;SDS011;49473;50.772;8.768;2023-07-13T07:15:27;2.10;;;1.07;;
2386;SDS011;49473;50.772;8.768;2023-07-13T07:17:54;1.93;;;1.10;;
2386;SDS011;49473;50.772;8.768;2023-07-13T07:20:21;2.20;;;1.00;;
2386;SDS011;49473;50.772;8.768;2023-07-13T07:22:49;2.17;;;1.00;;
2386;SDS011;49473;50.772;8.768;2023-07-13T07:25:16;2.60;;;1.00;;
2386;SDS011;49473;50.772;8.768;2023-07-13T07:27:43;2.97;;;0.83;;
2386;SDS011;49473;50.772;8.768;2023-07-13T07:30:10;1.30;;;0.80;;
2386;SDS011;49473;50.772;8.768;2023-07-13T07:32:37;1.87;;;0.80;;
2386;SDS011;49473;50.772;8.768;2023-07-13T07:35:04;1.97;;;1.10;;
2386;SDS011;49473;50.772;8.768;2023-07-13T07:37:32;0.73;;;0.73;;
2386;SDS011;49473;50.772;8.768;2023-07-13T07:40:00;1.30;;;0.70;;
2386;SDS011;49473;50.772;8.768;2023-07-13T07:42:27;1.90;;;1.10;;
2386;SDS011;49473;50.772;8.768;2023-07-13T07:44:54;2.80;;;1.13;;
2386;SDS011;49473;50.772;8.768;2023-07-13T07:47:20;1.37;;;0.80;;
2386;SDS011;49473;50.772;8.768;2023-07-13T07:49:48;1.93;;;1.00;;
2386;SDS011;49473;50.772;8.768;2023-07-13T07:52:14;0.90;;;0.80;;
2386;SDS011;49473;50.772;8.768;2023-07-13T07:54:41;1.97;;;0.90;;
2386;SDS011;49473;50.772;8.768;2023-07-13T07:57:09;1.50;;;1.00;;
2386;SDS011;49473;50.772;8.768;2023-07-13T07:59:36;2.00;;;0.80;;
2386;SDS011;49473;50.772;8.768;2023-07-13T08:02:03;1.80;;;0.83;;
2386;SDS011;49473;50.772;8.768;2023-07-13T08:04:30;1.77;;;0.87;;
2386;SDS011;49473;50.772;8.768;2023-07-13T08:06:57;1.33;;;0.97;;
2386;SDS011;49473;50.772;8.768;2023-07-13T08:09:24;1.13;;;1.07;;
2386;SDS011;49473;50.772;8.768;2023-07-13T08:11:50;1.47;;;0.70;;
2386;SDS011;49473;50.772;8.768;2023-07-13T08:14:19;0.83;;;0.80;;
2386;SDS011;49473;50.772;8.768;2023-07-13T08:16:45;0.93;;;0.70;;
2386;SDS011;49473;50.772;8.768;2023-07-13T08:19:12;1.60;;;0.80;;
2386;SDS011;49473;50.772;8.768;2023-07-13T08:21:39;2.50;;;0.90;;
2386;SDS011;49473;50.772;8.768;2023-07-13T08:24:07;1.50;;;0.80;;
2386;SDS011;49473;50.772;8.768;2023-07-13T08:26:34;1.03;;;0.80;;
2386;SDS011;49473;50.772;8.768;2023-07-13T08:29:01;1.23;;;0.90;;
2386;SDS011;49473;50.772;8.768;2023-07-13T08:31:29;1.40;;;0.70;;
2386;SDS011;49473;50.772;8.768;2023-07-13T08:33:56;2.33;;;0.70;;
2386;SDS011;49473;50.772;8.768;2023-07-13T08:36:23;1.57;;;0.87;;
2386;SDS011;49473;50.772;8.768;2023-07-13T08:38:51;1.80;;;0.93;;
2386;SDS011;49473;50.772;8.768;2023-07-13T08:41:17;1.50;;;1.00;;
2386;SDS011;49473;50.772;8.768;2023-07-13T08:43:45;0.80;;;0.80;;
2386;SDS011;49473;50.772;8.768;2023-07-13T08:46:15;0.73;;;0.73;;
2386;SDS011;49473;50.772;8.768;2023-07-13T08:48:48;0.57;;;0.50;;
2386;SDS011;49473;50.772;8.768;2023-07-13T08:51:24;0.80;;;0.80;;
2386;SDS011;49473;50.772;8.768;2023-07-13T08:54:01;2.80;;;0.90;;
2386;SDS011;49473;50.772;8.768;2023-07-13T08:56:31;0.70;;;0.70;;
2386;SDS011;49473;50.772;8.768;2023-07-13T08:58:59;0.80;;;0.80;;
2386;SDS011;49473;50.772;8.768;2023-07-13T09:01:33;1.83;;;0.67;;
2386;SDS011;49473;50.772;8.768;2023-07-13T09:04:16;1.17;;;0.70;;
2386;SDS011;49473;50.772;8.768;2023-07-13T09:06:49;0.90;;;0.70;;
2386;SDS011;49473;50.772;8.768;2023-07-13T09:09:36;0.93;;;0.67;;
2386;SDS011;49473;50.772;8.768;2023-07-13T09:12:13;0.77;;;0.67;;
2386;SDS011;49473;50.772;8.768;2023-07-13T09:14:45;0.90;;;0.90;;
2386;SDS011;49473;50.772;8.768;2023-07-13T09:17:15;1.50;;;0.80;;
2386;SDS011;49473;50.772;8.768;2023-07-13T09:19:49;1.10;;;0.77;;
2386;SDS011;49473;50.772;8.768;2023-07-13T09:22:22;1.37;;;0.70;;
2386;SDS011;49473;50.772;8.768;2023-07-13T09:24:51;1.30;;;0.80;;
2386;SDS011;49473;50.772;8.768;2023-07-13T09:27:23;0.93;;;0.77;;
2386;SDS011;49473;50.772;8.768;2023-07-13T09:29:58;0.73;;;0.70;;
2386;SDS011;49473;50.772;8.768;2023-07-13T09:32:30;1.60;;;0.70;;
2386;SDS011;49473;50.772;8.768;2023-07-13T09:35:00;0.90;;;0.70;;
2386;SDS011;49473;50.772;8.768;2023-07-13T09:37:28;1.27;;;0.60;;
2386;SDS011;49473;50.772;8.768;2023-07-13T09:39:58;0.83;;;0.60;;
2386;SDS011;49473;50.772;8.768;2023-07-13T09:42:30;1.00;;;0.60;;
2386;SDS011;49473;50.772;8.768;2023-07-13T09:44:59;0.70;;;0.60;;
2386;SDS011;49473;50.772;8.768;2023-07-13T09:47:28;2.00;;;0.97;;
2386;SDS011;49473;50.772;8.768;2023-07-13T09:49:57;1.17;;;0.50;;
2386;SDS011;49473;50.772;8.768;2023-07-13T09:52:27;1.37;;;0.67;;
2386;SDS011;49473;50.772;8.768;2023-07-13T09:55:12;0.73;;;0.70;;
2386;SDS011;49473;50.772;8.768;2023-07-13T09:57:50;2.63;;;0.50;;
2386;SDS011;49473;50.772;8.768;2023-07-13T10:00:21;1.03;;;0.73;;
2386;SDS011;49473;50.772;8.768;2023-07-13T10:02:52;1.50;;;0.60;;
2386;SDS011;49473;50.772;8.768;2023-07-13T10:05:38;0.90;;;0.67;;
2386;SDS011;49473;50.772;8.768;2023-07-13T10:08:05;1.73;;;0.60;;
2386;SDS011;49473;50.772;8.768;2023-07-13T10:10:40;1.40;;;0.60;;
2386;SDS011;49473;50.772;8.768;2023-07-13T10:13:12;0.93;;;0.67;;
2386;SDS011;49473;50.772;8.768;2023-07-13T10:16:00;1.23;;;0.57;;
2386;SDS011;49473;50.772;8.768;2023-07-13T10:18:27;2.93;;;0.60;;
2386;SDS011;49473;50.772;8.768;2023-07-13T10:21:04;0.70;;;0.70;;
2386;SDS011;49473;50.772;8.768;2023-07-13T10:23:38;0.60;;;0.60;;
2386;SDS011;49473;50.772;8.768;2023-07-13T10:26:08;1.37;;;0.70;;
2386;SDS011;49473;50.772;8.768;2023-07-13T10:28:41;0.87;;;0.70;;
2386;SDS011;49473;50.772;8.768;2023-07-13T10:31:10;1.43;;;0.80;;
2386;SDS011;49473;50.772;8.768;2023-07-13T10:33:40;1.70;;;0.77;;
2386;SDS011;49473;50.772;8.768;2023-07-13T10:36:12;0.67;;;0.67;;
2386;SDS011;49473;50.772;8.768;2023-07-13T10:38:43;0.87;;;0.80;;
2386;SDS011;49473;50.772;8.768;2023-07-13T10:41:14;1.10;;;1.00;;
2386;SDS011;49473;50.772;8.768;2023-07-13T10:43:45;1.00;;;0.70;;
2386;SDS011;49473;50.772;8.768;2023-07-13T10:46:17;0.73;;;0.60;;
2386;SDS011;49473;50.772;8.768;2023-07-13T10:48:48;0.87;;;0.70;;
2386;SDS011;49473;50.772;8.768;2023-07-13T10:51:19;0.70;;;0.70;;
2386;SDS011;49473;50.772;8.768;2023-07-13T10:53:47;1.17;;;0.70;;
2386;SDS011;49473;50.772;8.768;2023-07-13T10:56:34;2.03;;;0.70;;
2386;SDS011;49473;50.772;8.768;2023-07-13T10:59:02;0.60;;;0.60;;
2386;SDS011;49473;50.772;8.768;2023-07-13T11:01:40;1.07;;;0.70;;
2386;SDS011;49473;50.772;8.768;2023-07-13T11:04:18;0.70;;;0.70;;
2386;SDS011;49473;50.772;8.768;2023-07-13T11:06:48;0.87;;;0.57;;
2386;SDS011;49473;50.772;8.768;2023-07-13T11:09:24;0.70;;;0.70;;
2386;SDS011;49473;50.772;8.768;2023-07-13T11:11:58;0.70;;;0.53;;
2386;SDS011;49473;50.772;8.768;2023-07-13T11:14:27;0.70;;;0.70;;
2386;SDS011;49473;50.772;8.768;2023-07-13T11:16:56;1.27;;;0.90;;
2386;SDS011;49473;50.772;8.768;2023-07-13T11:19:39;0.50;;;0.50;;
2386;SDS011;49473;50.772;8.768;2023-07-13T11:22:13;1.00;;;0.60;;
2386;SDS011;49473;50.772;8.768;2023-07-13T11:24:58;0.57;;;0.57;;
2386;SDS011;49473;50.772;8.768;2023-07-13T11:27:34;3.50;;;0.77;;
2386;SDS011;49473;50.772;8.768;2023-07-13T11:30:08;0.73;;;0.60;;
2386;SDS011;49473;50.772;8.768;2023-07-13T11:32:44;1.37;;;1.00;;
2386;SDS011;49473;50.772;8.768;2023-07-13T11:35:12;0.70;;;0.70;;
2386;SDS011;49473;50.772;8.768;2023-07-13T11:37:43;0.80;;;0.80;;
2386;SDS011;49473;50.772;8.768;2023-07-13T11:40:12;1.20;;;0.87;;
2386;SDS011;49473;50.772;8.768;2023-07-13T11:42:40;1.23;;;0.73;;
2386;SDS011;49473;50.772;8.768;2023-07-13T11:45:14;1.43;;;0.73;;
2386;SDS011;49473;50.772;8.768;2023-07-13T11:47:48;0.70;;;0.60;;
2386;SDS011;49473;50.772;8.768;2023-07-13T11:50:19;0.70;;;0.70;;
2386;SDS011;49473;50.772;8.768;2023-07-13T11:52:48;1.53;;;0.77;;
2386;SDS011;49473;50.772;8.768;2023-07-13T11:55:19;0.80;;;0.80;;
2386;SDS011;49473;50.772;8.768;2023-07-13T11:57:49;0.87;;;0.70;;
2386;SDS011;49473;50.772;8.768;2023-07-13T12:00:18;1.60;;;1.00;;
2386;SDS011;49473;50.772;8.768;2023-07-13T12:02:48;1.70;;;0.70;;
2386;SDS011;49473;50.772;8.768;2023-07-13T12:05:18;1.23;;;0.83;;
2386;SDS011;49473;50.772;8.768;2023-07-13T12:07:46;1.70;;;1.00;;
2386;SDS011;49473;50.772;8.768;2023-07-13T12:10:17;2.73;;;0.80;;
2386;SDS011;49473;50.772;8.768;2023-07-13T12:12:47;0.80;;;0.73;;
2386;SDS011;49473;50.772;8.768;2023-07-13T12:15:16;1.70;;;0.80;;
2386;SDS011;49473;50.772;8.768;2023-07-13T12:17:43;0.80;;;0.80;;
2386;SDS011;49473;50.772;8.768;2023-07-13T12:20:17;2.40;;;1.10;;
2386;SDS011;49473;50.772;8.768;2023-07-13T12:22:48;0.50;;;0.50;;
2386;SDS011;49473;50.772;8.768;2023-07-13T12:25:17;0.90;;;0.90;;
2386;SDS011;49473;50.772;8.768;2023-07-13T12:27:46;0.90;;;0.90;;
2386;SDS011;49473;50.772;8.768;2023-07-13T12:30:24;1.50;;;1.03;;
2386;SDS011;49473;50.772;8.768;2023-07-13T12:32:58;1.53;;;0.90;;
2386;SDS011;49473;50.772;8.768;2023-07-13T12:35:26;1.40;;;0.90;;
2386;SDS011;49473;50.772;8.768;2023-07-13T12:37:59;1.37;;;0.90;;
2386;SDS011;49473;50.772;8.768;2023-07-13T12:40:28;0.90;;;0.70;;
2386;SDS011;49473;50.772;8.768;2023-07-13T12:43:00;2.80;;;0.93;;
2386;SDS011;49473;50.772;8.768;2023-07-13T12:45:29;2.10;;;1.03;;
2386;SDS011;49473;50.772;8.768;2023-07-13T12:47:57;1.17;;;0.80;;
2386;SDS011;49473;50.772;8.768;2023-07-13T12:50:30;1.37;;;0.90;;
2386;SDS011;49473;50.772;8.768;2023-07-13T12:53:04;2.50;;;0.80;;
2386;SDS011;49473;50.772;8.768;2023-07-13T12:55:40;1.90;;;0.90;;
2386;SDS011;49473;50.772;8.768;2023-07-13T12:58:09;1.33;;;0.97;;
2386;SDS011;49473;50.772;8.768;2023-07-13T13:00:47;1.43;;;1.03;;
2386;SDS011;49473;50.772;8.768;2023-07-13T13:03:19;1.03;;;0.90;;
2386;SDS011;49473;50.772;8.768;2023-07-13T13:05:49;1.93;;;1.30;;
2386;SDS011;49473;50.772;8.768;2023-07-13T13:08:26;1.13;;;0.90;;
2386;SDS011;49473;50.772;8.768;2023-07-13T13:10:52;1.10;;;1.00;;
2386;SDS011;49473;50.772;8.768;2023-07-13T13:13:19;1.53;;;0.80;;
2386;SDS011;49473;50.772;8.768;2023-07-13T13:15:46;1.57;;;1.00;;
2386;SDS011;49473;50.772;8.768;2023-07-13T13:18:16;0.97;;;0.90;;
2386;SDS011;49473;50.772;8.768;2023-07-13T13:20:43;3.53;;;1.10;;
2386;SDS011;49473;50.772;8.768;2023-07-13T13:23:11;1.13;;;0.97;;
2386;SDS011;49473;50.772;8.768;2023-07-13T13:25:43;2.30;;;1.07;;
2386;SDS011;49473;50.772;8.768;2023-07-13T13:28:13;1.40;;;0.90;;
2386;SDS011;49473;50.772;8.768;2023-07-13T13:30:41;3.83;;;0.90;;
2386;SDS011;49473;50.772;8.768;2023-07-13T13:33:09;3.37;;;0.80;;
2386;SDS011;49473;50.772;8.768;2023-07-13T13:35:37;1.97;;;1.30;;
2386;SDS011;49473;50.772;8.768;2023-07-13T13:38:09;1.53;;;1.00;;
2386;SDS011;49473;50.772;8.768;2023-07-13T13:40:39;1.17;;;0.90;;
2386;SDS011;49473;50.772;8.768;2023-07-13T13:45:54;1.03;;;0.90;;
2386;SDS011;49473;50.772;8.768;2023-07-13T13:48:26;1.60;;;1.10;;
2386;SDS011;49473;50.772;8.768;2023-07-13T13:50:57;1.13;;;1.00;;
2386;SDS011;49473;50.772;8.768;2023-07-13T13:53:24;1.17;;;1.00;;
2386;SDS011;49473;50.772;8.768;2023-07-13T13:55:52;2.33;;;1.03;;
2386;SDS011;49473;50.772;8.768;2023-07-13T13:58:19;2.20;;;1.37;;
2386;SDS011;49473;50.772;8.768;2023-07-13T14:00:48;2.03;;;1.20;;
2386;SDS011;49473;50.772;8.768;2023-07-13T14:03:15;1.90;;;1.10;;
2386;SDS011;49473;50.772;8.768;2023-07-13T14:05:44;1.13;;;0.97;;
2386;SDS011;49473;50.772;8.768;2023-07-13T14:08:12;0.70;;;0.70;;
2386;SDS011;49473;50.772;8.768;2023-07-13T14:10:40;1.10;;;1.00;;
2386;SDS011;49473;50.772;8.768;2023-07-13T14:13:08;0.90;;;0.90;;
2386;SDS011;49473;50.772;8.768;2023-07-13T14:15:43;2.10;;;1.40;;
2386;SDS011;49473;50.772;8.768;2023-07-13T14:18:11;1.40;;;1.10;;
2386;SDS011;49473;50.772;8.768;2023-07-13T14:20:42;1.67;;;1.13;;
2386;SDS011;49473;50.772;8.768;2023-07-13T14:23:12;2.10;;;1.00;;
2386;SDS011;49473;50.772;8.768;2023-07-13T14:25:40;1.53;;;1.17;;
2386;SDS011;49473;50.772;8.768;2023-07-13T14:28:11;1.87;;;1.10;;
2386;SDS011;49473;50.772;8.768;2023-07-13T14:30:45;2.10;;;1.20;;
2386;SDS011;49473;50.772;8.768;2023-07-13T14:33:13;1.13;;;1.03;;
2386;SDS011;49473;50.772;8.768;2023-07-13T14:35:41;2.03;;;1.20;;
2386;SDS011;49473;50.772;8.768;2023-07-13T14:38:08;1.23;;;1.10;;
2386;SDS011;49473;50.772;8.768;2023-07-13T14:40:38;2.73;;;1.20;;
2386;SDS011;49473;50.772;8.768;2023-07-13T14:43:07;2.30;;;1.10;;
2386;SDS011;49473;50.772;8.768;2023-07-13T14:45:36;1.23;;;1.00;;
2386;SDS011;49473;50.772;8.768;2023-07-13T14:48:09;1.80;;;1.20;;
2386;SDS011;49473;50.772;8.768;2023-07-13T14:50:43;1.40;;;1.30;;
2386;SDS011;49473;50.772;8.768;2023-07-13T14:53:12;2.63;;;1.60;;
2386;SDS011;49473;50.772;8.768;2023-07-13T14:55:39;1.37;;;1.00;;
2386;SDS011;49473;50.772;8.768;2023-07-13T14:58:07;0.90;;;0.90;;
2386;SDS011;49473;50.772;8.768;2023-07-13T15:00:34;2.40;;;1.50;;
2386;SDS011;49473;50.772;8.768;2023-07-13T15:03:02;3.50;;;1.33;;
2386;SDS011;49473;50.772;8.768;2023-07-13T15:05:32;2.03;;;1.17;;
2386;SDS011;49473;50.772;8.768;2023-07-13T15:08:00;1.43;;;1.10;;
2386;SDS011;49473;50.772;8.768;2023-07-13T15:10:28;2.00;;;0.93;;
2386;SDS011;49473;50.772;8.768;2023-07-13T15:12:58;1.47;;;1.23;;